createdAt,value
2023-05-05T00:02:19.207Z,57.67
2023-05-05T00:07:21.059Z,59.00
2023-05-05T00:12:22.865Z,58.17
2023-05-05T00:17:24.749Z,59.84
2023-05-05T00:22:26.513Z,58.66
2023-05-05T00:27:28.255Z,58.64
2023-05-05T00:32:30.040Z,58.19
2023-05-05T00:37:31.860Z,58.63
2023-05-05T00:42:47.221Z,58.48
2023-05-05T00:47:54.209Z,58.54
2023-05-05T00:53:06.102Z,58.52
2023-05-05T00:58:08.894Z,58.43
2023-05-05T01:03:12.854Z,58.27
2023-05-05T01:08:43.610Z,57.73
2023-05-05T01:14:19.381Z,58.22
2023-05-05T01:20:20.756Z,58.41
2023-05-05T01:26:16.836Z,58.65
2023-05-05T01:32:01.297Z,58.08
2023-05-05T01:37:22.254Z,58.29
2023-05-05T01:42:26.700Z,58.68
2023-05-05T01:47:31.398Z,59.36
2023-05-05T01:52:37.480Z,59.37
2023-05-05T01:57:42.651Z,59.58
2023-05-05T02:02:49.266Z,59.81
2023-05-05T02:07:58.832Z,60.57
2023-05-05T02:13:02.870Z,60.17
2023-05-05T02:18:07.581Z,59.67
2023-05-05T02:23:09.763Z,60.85
2023-05-05T02:28:23.080Z,61.03
2023-05-05T02:33:29.059Z,60.16
2023-05-05T02:38:32.615Z,60.79
2023-05-05T02:43:38.751Z,60.85
2023-05-05T02:48:40.621Z,60.45
2023-05-05T02:53:42.639Z,60.64
2023-05-05T02:59:03.424Z,59.96
2023-05-05T03:04:30.700Z,60.36
2023-05-05T03:09:45.787Z,60.11
2023-05-05T03:14:54.128Z,59.97
2023-05-05T03:19:57.111Z,59.60
2023-05-05T03:24:58.856Z,59.65
2023-05-05T03:30:00.750Z,59.17
2023-05-05T03:35:02.574Z,59.11
2023-05-05T03:40:05.001Z,59.27
2023-05-05T03:45:07.914Z,59.97
2023-05-05T03:50:10.191Z,59.06
2023-05-05T03:55:12.060Z,59.90
2023-05-05T04:00:15.174Z,59.58
2023-05-05T04:05:17.424Z,59.69
2023-05-05T04:10:19.178Z,60.44
2023-05-05T04:15:21.260Z,59.92
2023-05-05T04:20:23.143Z,60.13
2023-05-05T04:25:25.002Z,59.90
2023-05-05T04:30:26.791Z,59.88
2023-05-05T04:35:28.566Z,60.07
2023-05-05T04:40:30.460Z,59.87
2023-05-05T04:45:32.236Z,59.85
2023-05-05T04:50:34.084Z,59.51
2023-05-05T04:55:35.850Z,59.52
2023-05-05T05:00:37.965Z,58.89
2023-05-05T05:05:39.723Z,58.35
2023-05-05T05:10:42.170Z,58.59
2023-05-05T05:15:44.962Z,58.08
2023-05-05T05:20:46.719Z,57.73
2023-05-05T05:25:48.656Z,58.15
2023-05-05T05:30:51.939Z,57.51
2023-05-05T05:35:53.770Z,57.37
2023-05-05T05:40:55.625Z,56.63
2023-05-05T05:45:57.440Z,56.32
2023-05-05T05:50:59.365Z,56.09
2023-05-05T05:56:01.448Z,55.03
2023-05-05T06:01:04.924Z,53.91
2023-05-05T06:06:07.513Z,52.13
2023-05-05T06:11:09.310Z,50.38
2023-05-05T06:16:11.274Z,48.71
2023-05-05T06:21:13.452Z,49.29
2023-05-05T06:26:16.023Z,48.41
2023-05-05T06:31:18.317Z,44.94
2023-05-05T06:36:20.198Z,42.76
2023-05-05T06:41:22.015Z,42.22
2023-05-05T06:46:23.805Z,41.15
2023-05-05T06:51:26.412Z,41.29
2023-05-05T06:56:28.328Z,40.41
2023-05-05T07:01:30.116Z,39.56
2023-05-05T07:06:32.141Z,40.72
2023-05-05T07:11:33.903Z,40.70
2023-05-05T07:16:37.200Z,40.45
2023-05-05T07:21:39.689Z,39.92
2023-05-05T07:26:41.685Z,37.81
2023-05-05T07:31:43.561Z,36.12
2023-05-05T07:36:45.455Z,34.88
2023-05-05T07:41:47.217Z,32.39
2023-05-05T07:46:49.265Z,31.30
2023-05-05T07:51:51.247Z,30.05
2023-05-05T07:56:53.336Z,30.28
2023-05-05T08:01:55.174Z,29.71
2023-05-05T08:06:56.978Z,29.33
2023-05-05T08:11:58.752Z,29.02
2023-05-05T08:17:00.632Z,28.67
2023-05-05T08:22:02.529Z,28.27
2023-05-05T08:27:04.410Z,28.68
2023-05-05T08:32:06.239Z,28.25
2023-05-05T08:37:08.024Z,29.02
2023-05-05T08:42:09.838Z,28.60
2023-05-05T08:47:15.591Z,27.94
2023-05-05T08:52:24.190Z,29.10
2023-05-05T08:57:41.257Z,29.07
2023-05-05T09:02:44.714Z,30.08
2023-05-05T09:07:47.224Z,29.30
2023-05-05T09:12:51.125Z,28.51
2023-05-05T09:17:56.417Z,28.76
2023-05-05T09:22:58.270Z,30.48
2023-05-05T09:28:14.053Z,28.72
2023-05-05T09:33:31.144Z,29.64
2023-05-05T09:38:34.740Z,30.88
2023-05-05T09:43:51.942Z,32.94
2023-05-05T09:48:53.957Z,34.55
2023-05-05T09:53:55.752Z,33.01
2023-05-05T09:59:09.794Z,32.06
2023-05-05T10:04:30.275Z,30.89
2023-05-05T10:09:32.500Z,31.88
2023-05-05T10:14:35.761Z,34.10
2023-05-05T10:19:40.730Z,32.79
2023-05-05T10:25:02.728Z,33.14
2023-05-05T10:30:08.043Z,33.05
2023-05-05T10:35:16.304Z,32.75
2023-05-05T10:40:18.325Z,33.70
2023-05-05T10:45:20.285Z,34.70
2023-05-05T10:50:38.845Z,34.13
2023-05-05T10:56:27.384Z,34.49
2023-05-05T11:01:35.323Z,33.52
2023-05-05T11:06:37.386Z,34.47
2023-05-05T11:12:08.254Z,34.14
2023-05-05T11:17:46.587Z,33.65
2023-05-05T11:23:03.853Z,33.53
2023-05-05T11:28:13.436Z,34.53
2023-05-05T11:33:31.535Z,33.72
2023-05-05T11:38:36.314Z,33.91
2023-05-05T11:43:39.839Z,35.17
2023-05-05T11:55:41.915Z,34.81
2023-05-05T12:00:43.705Z,34.10
2023-05-05T12:05:47.610Z,34.30
2023-05-05T12:10:49.435Z,33.56
2023-05-05T12:15:51.265Z,33.72
2023-05-05T12:20:53.295Z,34.79
2023-05-05T12:25:55.148Z,33.32
2023-05-05T12:30:58.925Z,33.09
2023-05-05T12:36:00.964Z,33.01
2023-05-05T12:41:03.204Z,33.36
2023-05-05T12:46:12.508Z,33.13
2023-05-05T12:51:25.569Z,33.28
2023-05-05T12:56:42.885Z,33.25
2023-05-05T13:01:53.472Z,33.18
2023-05-05T13:07:11.616Z,33.97
2023-05-05T13:12:14.451Z,33.51
2023-05-05T13:17:16.252Z,34.07
2023-05-05T13:22:18.043Z,35.04
2023-05-05T13:27:20.716Z,34.84
2023-05-05T13:32:22.982Z,33.87
2023-05-05T13:37:24.888Z,34.46
2023-05-05T13:42:26.687Z,34.67
2023-05-05T13:47:29.262Z,34.28
2023-05-05T13:52:33.169Z,34.52
2023-05-05T13:57:35.428Z,34.77
2023-05-05T14:02:37.226Z,35.41
2023-05-05T14:07:39.098Z,35.08
2023-05-05T14:12:40.991Z,34.99
2023-05-05T14:17:42.817Z,35.18
2023-05-05T14:22:44.697Z,35.37
2023-05-05T14:27:46.799Z,34.74
2023-05-05T14:32:48.716Z,34.96
2023-05-05T14:37:50.581Z,35.41
2023-05-05T14:42:52.491Z,36.49
2023-05-05T14:47:54.357Z,35.82
2023-05-05T14:52:56.286Z,35.40
2023-05-05T14:57:58.176Z,36.49
2023-05-05T15:03:00.086Z,36.93
2023-05-05T15:08:02.130Z,36.38
2023-05-05T15:13:03.973Z,36.29
2023-05-05T15:18:06.362Z,35.50
2023-05-05T15:23:08.699Z,36.17
2023-05-05T15:28:10.594Z,35.89
2023-05-05T15:33:12.338Z,35.67
2023-05-05T15:38:14.174Z,36.19
2023-05-05T15:43:15.940Z,36.87
2023-05-05T15:48:18.410Z,36.85
2023-05-05T15:53:20.588Z,37.60
2023-05-05T15:58:22.490Z,37.52
2023-05-05T16:03:24.482Z,37.60
2023-05-05T16:08:26.375Z,37.96
2023-05-05T16:13:28.349Z,37.91
2023-05-05T16:18:30.076Z,37.97
2023-05-05T16:23:31.935Z,38.35
2023-05-05T16:28:34.258Z,38.37
2023-05-05T16:33:40.777Z,38.84
2023-05-05T16:38:43.705Z,38.79
2023-05-05T16:43:46.234Z,39.31
2023-05-05T16:48:48.029Z,39.64
2023-05-05T16:53:50.104Z,39.76
2023-05-05T16:58:52.446Z,40.42
2023-05-05T17:03:55.463Z,40.00
2023-05-05T17:08:57.455Z,40.89
2023-05-05T17:13:59.301Z,40.59
2023-05-05T17:19:01.130Z,40.91
2023-05-05T17:24:03.388Z,41.18
2023-05-05T17:29:05.239Z,41.00
2023-05-05T17:34:07.301Z,40.80
2023-05-05T17:39:11.258Z,41.32
2023-05-05T17:44:13.185Z,41.54
2023-05-05T17:49:15.011Z,42.42
2023-05-05T17:54:17.082Z,42.82
2023-05-05T17:59:18.920Z,43.58
2023-05-05T18:04:20.779Z,44.60
2023-05-05T18:09:23.360Z,45.40
2023-05-05T18:14:25.181Z,45.52
2023-05-05T18:19:26.980Z,45.96
2023-05-05T18:24:29.388Z,46.18
2023-05-05T18:29:31.188Z,46.44
2023-05-05T18:34:32.984Z,46.58
2023-05-05T18:39:34.798Z,46.48
2023-05-05T18:44:36.547Z,47.58
2023-05-05T18:49:38.502Z,47.53
2023-05-05T18:54:40.895Z,47.40
2023-05-05T18:59:42.669Z,48.32
2023-05-05T19:04:44.841Z,47.69
2023-05-05T19:09:46.891Z,48.16
2023-05-05T19:14:48.734Z,47.98
2023-05-05T19:19:50.656Z,48.42
2023-05-05T19:24:52.383Z,48.51
2023-05-05T19:29:54.149Z,49.39
2023-05-05T19:34:56.416Z,48.95
2023-05-05T19:39:58.164Z,49.21
2023-05-05T19:45:01.188Z,49.17
2023-05-05T19:50:03.097Z,49.30
2023-05-05T19:55:05.667Z,50.09
2023-05-05T20:00:10.466Z,54.19
2023-05-05T20:05:17.123Z,59.41
2023-05-05T20:10:19.137Z,60.28
2023-05-05T20:15:22.188Z,59.10
2023-05-05T20:20:23.986Z,60.32
2023-05-05T20:25:25.773Z,58.32
2023-05-05T20:30:27.563Z,58.62
2023-05-05T20:35:29.452Z,57.26
2023-05-05T20:40:33.210Z,54.82
2023-05-05T20:45:35.269Z,54.73
2023-05-05T20:50:41.878Z,55.05
2023-05-05T20:55:43.627Z,53.80
2023-05-05T21:00:47.353Z,53.36
2023-05-05T21:05:49.245Z,53.85
2023-05-05T21:10:50.976Z,54.58
2023-05-05T21:15:52.765Z,54.59
2023-05-05T21:20:54.786Z,54.51
2023-05-05T21:25:56.531Z,54.65
2023-05-05T21:31:19.732Z,53.63
2023-05-05T21:36:21.189Z,54.29
2023-05-05T21:41:23.741Z,54.04
2023-05-05T21:46:25.787Z,54.21
2023-05-05T21:51:27.658Z,54.18
2023-05-05T21:56:29.432Z,54.33
2023-05-05T22:01:32.256Z,54.33
2023-05-05T22:06:34.268Z,54.63
2023-05-05T22:11:36.170Z,56.08
2023-05-05T22:16:38.069Z,56.88
2023-05-05T22:21:39.939Z,57.05
2023-05-05T22:26:43.242Z,59.59
2023-05-05T22:31:45.420Z,61.63
2023-05-05T22:36:48.257Z,64.36
2023-05-05T22:41:50.048Z,65.31
2023-05-05T22:46:51.887Z,67.08
2023-05-05T22:51:53.764Z,65.33
2023-05-05T22:56:55.542Z,64.64
2023-05-05T23:01:57.399Z,69.42
2023-05-05T23:06:59.264Z,66.27
2023-05-05T23:12:01.812Z,68.14
2023-05-05T23:17:03.723Z,68.75
2023-05-05T23:22:06.087Z,73.79
2023-05-05T23:27:07.888Z,79.38
2023-05-05T23:32:09.758Z,80.62
2023-05-05T23:37:14.450Z,83.58
2023-05-05T23:42:16.231Z,83.88
2023-05-05T23:47:18.012Z,82.90
2023-05-05T23:52:19.786Z,84.67
2023-05-05T23:57:22.120Z,84.28
